createdAt,value
2022-10-02T00:01:47.806Z,15.97
2022-10-02T00:04:22.873Z,15.95
2022-10-02T00:06:53.173Z,16.02
2022-10-02T00:09:32.302Z,16.13
2022-10-02T00:12:01.524Z,16.09
2022-10-02T00:14:35.615Z,16.19
2022-10-02T00:17:03.988Z,16.17
2022-10-02T00:19:32.882Z,16.12
2022-10-02T00:22:23.829Z,16.08
2022-10-02T00:25:08.688Z,16.17
2022-10-02T00:27:59.305Z,16.22
2022-10-02T00:30:32.043Z,16.17
2022-10-02T00:33:24.541Z,16.04
2022-10-02T00:36:14.429Z,15.93
2022-10-02T00:39:06.162Z,16.01
2022-10-02T00:41:55.092Z,16.01
2022-10-02T00:44:39.774Z,15.98
2022-10-02T00:47:30.368Z,15.93
2022-10-02T00:50:02.231Z,15.87
2022-10-02T00:52:44.598Z,15.87
2022-10-02T00:55:57.710Z,15.91
2022-10-02T00:58:52.663Z,15.89
2022-10-02T01:01:37.382Z,15.90
2022-10-02T01:04:11.399Z,15.89
2022-10-02T01:06:40.974Z,15.85
2022-10-02T01:09:08.714Z,15.94
2022-10-02T01:11:38.671Z,15.90
2022-10-02T01:14:07.420Z,15.89
2022-10-02T01:16:36.157Z,15.86
2022-10-02T01:19:03.909Z,15.81
2022-10-02T01:21:50.290Z,15.82
2022-10-02T01:24:33.113Z,15.93
2022-10-02T01:27:00.705Z,15.70
2022-10-02T01:29:28.971Z,15.82
2022-10-02T01:31:56.957Z,15.85
2022-10-02T01:34:27.072Z,15.88
2022-10-02T01:36:54.963Z,15.73
2022-10-02T01:39:24.601Z,15.75
2022-10-02T01:41:52.347Z,15.75
2022-10-02T01:44:20.368Z,15.78
2022-10-02T01:47:06.260Z,15.73
2022-10-02T01:49:49.847Z,15.56
2022-10-02T01:52:49.914Z,15.62
2022-10-02T01:55:58.551Z,15.63
2022-10-02T01:58:33.836Z,15.51
2022-10-02T02:01:04.915Z,15.50
2022-10-02T02:03:41.648Z,15.39
2022-10-02T02:06:22.110Z,15.34
2022-10-02T02:09:12.248Z,15.47
2022-10-02T02:11:50.251Z,15.29
2022-10-02T02:14:26.030Z,15.16
2022-10-02T02:17:09.659Z,15.19
2022-10-02T02:19:46.756Z,15.23
2022-10-02T02:22:21.419Z,14.96
2022-10-02T02:24:53.724Z,15.01
2022-10-02T02:27:27.726Z,14.81
2022-10-02T02:30:00.449Z,14.86
2022-10-02T02:32:37.121Z,14.72
2022-10-02T02:35:12.356Z,14.52
2022-10-02T02:37:43.433Z,14.60
2022-10-02T02:40:24.435Z,14.67
2022-10-02T02:43:16.715Z,14.61
2022-10-02T02:45:50.627Z,14.57
2022-10-02T02:48:37.009Z,14.48
2022-10-02T02:51:12.051Z,14.40
2022-10-02T02:53:57.112Z,14.43
2022-10-02T02:56:29.763Z,14.35
2022-10-02T02:59:14.675Z,14.34
2022-10-02T03:01:42.778Z,14.50
2022-10-02T03:04:13.021Z,14.35
2022-10-02T03:06:47.355Z,14.43
2022-10-02T03:09:22.559Z,14.54
2022-10-02T03:12:05.180Z,14.51
2022-10-02T03:15:11.150Z,14.47
2022-10-02T03:17:57.244Z,14.49
2022-10-02T03:20:51.235Z,14.56
2022-10-02T03:23:36.678Z,14.54
2022-10-02T03:26:13.117Z,14.51
2022-10-02T03:28:56.613Z,14.56
2022-10-02T03:31:28.970Z,14.54
2022-10-02T03:33:58.848Z,14.43
2022-10-02T03:36:28.940Z,14.34
2022-10-02T03:39:25.995Z,14.19
2022-10-02T03:42:01.583Z,14.12
2022-10-02T03:44:31.253Z,14.18
2022-10-02T03:46:58.972Z,14.01
2022-10-02T03:49:26.369Z,14.01
2022-10-02T03:51:54.694Z,14.11
2022-10-02T03:54:24.057Z,14.01
2022-10-02T03:56:56.497Z,14.04
2022-10-02T03:59:52.512Z,13.97
2022-10-02T04:02:27.489Z,13.90
2022-10-02T04:05:26.835Z,14.03
2022-10-02T04:08:00.296Z,14.06
2022-10-02T04:10:55.443Z,14.10
2022-10-02T04:13:39.119Z,14.07
2022-10-02T04:16:38.157Z,14.14
2022-10-02T04:19:22.763Z,13.90
2022-10-02T04:22:03.145Z,14.11
2022-10-02T04:24:52.431Z,14.18
2022-10-02T04:28:12.512Z,14.20
2022-10-02T04:30:40.180Z,14.30
2022-10-02T04:33:18.141Z,14.33
2022-10-02T04:36:00.486Z,14.20
2022-10-02T04:38:37.734Z,14.17
2022-10-02T04:41:31.306Z,14.28
2022-10-02T04:44:01.198Z,14.13
2022-10-02T04:46:28.433Z,14.11
2022-10-02T04:49:11.677Z,14.11
2022-10-02T04:51:39.689Z,14.13
2022-10-02T04:54:43.175Z,14.13
2022-10-02T04:57:27.632Z,14.09
2022-10-02T05:00:07.267Z,14.14
2022-10-02T05:03:13.058Z,14.14
2022-10-02T05:06:01.803Z,14.03
2022-10-02T05:08:45.890Z,14.07
2022-10-02T05:11:48.585Z,14.13
2022-10-02T05:14:37.405Z,14.08
2022-10-02T05:17:28.995Z,14.06
2022-10-02T05:20:11.050Z,14.05
2022-10-02T05:23:15.953Z,14.16
2022-10-02T05:25:53.416Z,14.00
2022-10-02T05:28:51.123Z,14.05
2022-10-02T05:31:40.574Z,14.24
2022-10-02T05:34:18.493Z,14.22
2022-10-02T05:37:16.985Z,14.38
2022-10-02T05:40:17.185Z,14.34
2022-10-02T05:42:58.635Z,15.00
2022-10-02T05:45:52.554Z,14.69
2022-10-02T05:48:33.437Z,14.73
2022-10-02T05:51:10.284Z,15.67
2022-10-02T05:53:44.603Z,17.00
2022-10-02T05:56:18.258Z,17.82
2022-10-02T05:59:12.497Z,17.17
2022-10-02T06:01:47.724Z,18.07
2022-10-02T06:04:27.877Z,17.78
2022-10-02T06:06:59.275Z,16.84
2022-10-02T06:09:35.918Z,16.65
2022-10-02T06:12:12.479Z,16.23
2022-10-02T06:15:08.321Z,18.40
2022-10-02T06:18:06.490Z,18.92
2022-10-02T06:20:40.612Z,19.53
2022-10-02T06:23:34.932Z,20.68
2022-10-02T06:26:13.293Z,20.16
2022-10-02T06:28:50.488Z,20.09
2022-10-02T06:31:46.775Z,20.12
2022-10-02T06:34:17.596Z,20.02
2022-10-02T06:37:13.266Z,20.43
2022-10-02T06:39:48.716Z,20.17
2022-10-02T06:42:42.172Z,20.29
2022-10-02T06:45:23.848Z,19.76
2022-10-02T06:48:10.197Z,19.93
2022-10-02T06:50:54.434Z,19.95
2022-10-02T06:53:53.026Z,20.59
2022-10-02T06:56:46.141Z,20.25
2022-10-02T06:59:38.957Z,20.31
2022-10-02T07:02:26.495Z,20.84
2022-10-02T07:04:54.212Z,19.42
2022-10-02T07:07:30.110Z,18.83
2022-10-02T07:10:25.792Z,19.15
2022-10-02T07:13:16.343Z,18.73
2022-10-02T07:16:18.178Z,18.50
2022-10-02T07:18:53.714Z,18.63
2022-10-02T07:21:47.377Z,18.06
2022-10-02T07:24:21.189Z,18.56
2022-10-02T07:27:15.126Z,19.68
2022-10-02T07:29:47.675Z,19.00
2022-10-02T07:32:31.144Z,19.03
2022-10-02T07:35:12.316Z,19.15
2022-10-02T07:37:53.880Z,20.05
2022-10-02T07:40:43.734Z,20.30
2022-10-02T07:43:17.951Z,20.25
2022-10-02T07:46:09.761Z,19.98
2022-10-02T07:48:59.340Z,20.27
2022-10-02T07:51:49.845Z,20.48
2022-10-02T07:54:36.273Z,21.26
2022-10-02T07:57:37.233Z,20.89
2022-10-02T08:00:34.528Z,21.18
2022-10-02T08:03:16.839Z,21.90
2022-10-02T08:05:58.569Z,22.01
2022-10-02T08:09:01.132Z,21.68
2022-10-02T08:11:51.133Z,21.28
2022-10-02T08:14:29.060Z,21.60
2022-10-02T08:17:06.332Z,21.25
2022-10-02T08:19:45.527Z,21.39
2022-10-02T08:22:26.792Z,21.04
2022-10-02T08:25:02.316Z,21.49
2022-10-02T08:27:58.627Z,21.89
2022-10-02T08:30:27.628Z,21.77
2022-10-02T08:32:55.386Z,22.01
2022-10-02T08:35:33.022Z,22.07
2022-10-02T08:38:24.227Z,22.53
2022-10-02T08:40:53.570Z,22.13
2022-10-02T08:43:45.190Z,21.65
2022-10-02T08:46:56.397Z,21.65
2022-10-02T08:49:48.681Z,21.28
2022-10-02T08:52:53.572Z,21.37
2022-10-02T08:55:44.398Z,21.49
2022-10-02T08:58:35.312Z,22.08
2022-10-02T09:01:15.738Z,22.03
2022-10-02T09:04:23.166Z,22.45
2022-10-02T09:06:57.422Z,22.80
2022-10-02T09:09:43.425Z,22.28
2022-10-02T09:12:37.958Z,22.10
2022-10-02T09:15:23.228Z,22.10
2022-10-02T09:18:21.477Z,21.79
2022-10-02T09:21:38.592Z,22.86
2022-10-02T09:24:43.596Z,21.82
2022-10-02T09:27:27.710Z,21.67
2022-10-02T09:29:56.240Z,22.42
2022-10-02T09:33:01.935Z,21.37
2022-10-02T09:36:07.784Z,21.32
2022-10-02T09:38:54.245Z,22.24
2022-10-02T09:41:50.266Z,22.97
2022-10-02T09:44:34.532Z,22.47
2022-10-02T09:47:26.320Z,21.93
2022-10-02T09:50:13.851Z,23.08
2022-10-02T09:52:46.490Z,22.92
2022-10-02T09:55:45.692Z,23.01
2022-10-02T09:58:33.663Z,23.68
2022-10-02T10:01:16.476Z,23.31
2022-10-02T10:03:47.634Z,23.55
2022-10-02T10:06:27.137Z,23.46
2022-10-02T10:09:18.729Z,23.74
2022-10-02T10:12:00.779Z,24.08
2022-10-02T10:15:09.566Z,23.48
2022-10-02T10:18:08.299Z,23.77
2022-10-02T10:21:14.153Z,23.46
2022-10-02T10:24:08.422Z,23.78
2022-10-02T10:26:48.077Z,24.28
2022-10-02T10:29:33.925Z,23.57
2022-10-02T10:32:42.714Z,24.10
2022-10-02T10:35:28.242Z,24.37
2022-10-02T10:38:33.144Z,23.97
2022-10-02T10:41:12.901Z,24.25
2022-10-02T10:44:00.460Z,24.37
2022-10-02T10:46:53.744Z,24.34
2022-10-02T10:49:46.181Z,24.02
2022-10-02T10:52:41.915Z,23.64
2022-10-02T10:56:07.373Z,23.93
2022-10-02T10:58:51.263Z,23.82
2022-10-02T11:01:38.335Z,24.18
2022-10-02T11:04:40.314Z,24.57
2022-10-02T11:07:08.199Z,23.49
2022-10-02T11:09:50.948Z,23.38
2022-10-02T11:12:41.315Z,23.31
2022-10-02T11:15:08.800Z,23.02
2022-10-02T11:17:57.223Z,23.42
2022-10-02T11:20:37.720Z,23.11
2022-10-02T11:23:30.940Z,23.48
2022-10-02T11:26:26.640Z,23.43
2022-10-02T11:29:09.746Z,23.69
2022-10-02T11:32:06.359Z,23.95
2022-10-02T11:34:55.521Z,23.92
2022-10-02T11:37:45.246Z,23.69
2022-10-02T11:40:20.899Z,23.35
2022-10-02T11:43:02.157Z,23.63
2022-10-02T11:45:59.721Z,24.20
2022-10-02T11:48:47.326Z,24.10
2022-10-02T11:51:37.836Z,23.91
2022-10-02T11:54:40.870Z,24.27
2022-10-02T11:57:35.288Z,23.97
2022-10-02T12:00:31.845Z,23.15
2022-10-02T12:03:09.410Z,23.69
2022-10-02T12:05:55.350Z,23.00
2022-10-02T12:08:57.079Z,22.57
2022-10-02T12:12:20.603Z,23.55
2022-10-02T12:14:56.201Z,22.93
2022-10-02T12:17:49.889Z,23.66
2022-10-02T12:20:59.427Z,23.25
2022-10-02T12:23:48.073Z,23.00
2022-10-02T12:27:12.669Z,23.54
2022-10-02T12:30:01.445Z,23.93
2022-10-02T12:32:47.196Z,23.59
2022-10-02T12:35:47.883Z,23.71
2022-10-02T12:38:37.232Z,23.25
2022-10-02T12:41:25.322Z,22.62
2022-10-02T12:44:22.377Z,22.88
2022-10-02T12:47:12.826Z,22.94
2022-10-02T12:50:05.980Z,22.80
2022-10-02T12:53:06.352Z,22.98
2022-10-02T12:55:50.580Z,22.93
2022-10-02T12:58:27.229Z,23.11
2022-10-02T13:01:44.637Z,23.44
2022-10-02T13:04:39.232Z,22.62
2022-10-02T13:07:30.267Z,22.78
2022-10-02T13:10:03.862Z,23.02
2022-10-02T13:13:09.203Z,23.03
2022-10-02T13:16:21.639Z,23.82
2022-10-02T13:18:59.229Z,24.48
2022-10-02T13:21:38.992Z,24.44
2022-10-02T13:24:29.043Z,24.29
2022-10-02T13:27:17.105Z,24.12
2022-10-02T13:30:17.039Z,23.53
2022-10-02T13:33:06.266Z,23.17
2022-10-02T13:35:59.483Z,23.25
2022-10-02T13:38:36.112Z,23.22
2022-10-02T13:41:23.244Z,23.46
2022-10-02T13:44:03.442Z,23.72
2022-10-02T13:46:37.056Z,23.77
2022-10-02T13:49:36.655Z,23.76
2022-10-02T13:52:27.524Z,23.53
2022-10-02T13:55:24.605Z,23.48
2022-10-02T13:58:13.128Z,23.37
2022-10-02T14:01:18.303Z,23.51
2022-10-02T14:04:17.329Z,23.34
2022-10-02T14:07:05.541Z,23.72
2022-10-02T14:10:03.534Z,23.92
2022-10-02T14:12:58.834Z,23.64
2022-10-02T14:15:35.178Z,23.36
2022-10-02T14:18:37.237Z,22.90
2022-10-02T14:21:31.211Z,22.44
2022-10-02T14:24:47.794Z,22.47
2022-10-02T14:27:20.627Z,22.79
2022-10-02T14:30:07.291Z,22.95
2022-10-02T14:32:50.853Z,22.96
2022-10-02T14:36:03.633Z,22.65
2022-10-02T14:39:06.805Z,22.76
2022-10-02T14:42:16.782Z,23.09
2022-10-02T14:45:18.729Z,23.17
2022-10-02T14:48:25.711Z,22.69
2022-10-02T14:51:29.421Z,22.49
2022-10-02T14:54:49.815Z,22.63
2022-10-02T14:57:45.250Z,22.50
2022-10-02T15:00:21.684Z,22.46
2022-10-02T15:03:24.401Z,22.37
2022-10-02T15:06:18.871Z,22.31
2022-10-02T15:09:03.594Z,22.31
2022-10-02T15:12:07.540Z,22.23
2022-10-02T15:14:48.030Z,22.27
2022-10-02T15:17:46.068Z,22.46
2022-10-02T15:20:40.423Z,22.45
2022-10-02T15:23:12.821Z,22.37
2022-10-02T15:26:00.914Z,22.23
2022-10-02T15:28:49.924Z,22.07
2022-10-02T15:31:18.127Z,22.00
2022-10-02T15:34:22.234Z,21.89
2022-10-02T15:37:27.984Z,21.80
2022-10-02T15:40:10.610Z,21.92
2022-10-02T15:43:14.545Z,21.56
2022-10-02T15:46:28.568Z,21.08
2022-10-02T15:49:11.018Z,21.00
2022-10-02T15:51:56.098Z,20.69
2022-10-02T15:54:55.686Z,20.47
2022-10-02T15:57:48.228Z,20.31
2022-10-02T16:01:02.702Z,20.04
2022-10-02T16:03:43.412Z,19.90
2022-10-02T16:06:36.526Z,19.67
2022-10-02T16:09:42.130Z,19.48
2022-10-02T16:12:40.523Z,19.38
2022-10-02T16:15:41.300Z,19.24
2022-10-02T16:18:24.825Z,19.05
2022-10-02T16:21:27.638Z,18.85
2022-10-02T16:24:36.030Z,18.66
2022-10-02T16:27:13.191Z,18.59
2022-10-02T16:30:18.854Z,18.41
2022-10-02T16:33:23.494Z,18.35
2022-10-02T16:36:33.090Z,18.31
2022-10-02T16:39:39.294Z,18.35
2022-10-02T16:42:23.412Z,18.27
2022-10-02T16:45:05.224Z,18.12
2022-10-02T16:47:52.857Z,17.92
2022-10-02T16:50:52.524Z,17.84
2022-10-02T16:53:32.258Z,17.70
2022-10-02T16:56:16.374Z,17.63
2022-10-02T16:59:01.568Z,17.68
2022-10-02T17:02:17.945Z,17.49
2022-10-02T17:05:14.662Z,17.41
2022-10-02T17:08:18.975Z,17.23
2022-10-02T17:11:25.214Z,17.05
2022-10-02T17:13:59.544Z,16.99
2022-10-02T17:16:48.469Z,16.98
2022-10-02T17:19:46.121Z,16.90
2022-10-02T17:22:45.473Z,17.18
2022-10-02T17:25:30.350Z,17.07
2022-10-02T17:28:06.881Z,17.20
2022-10-02T17:31:00.746Z,16.94
2022-10-02T17:33:40.360Z,16.85
2022-10-02T17:36:31.297Z,16.69
2022-10-02T17:39:19.249Z,16.62
2022-10-02T17:41:55.858Z,16.59
2022-10-02T17:44:47.788Z,16.46
2022-10-02T17:47:37.748Z,16.34
2022-10-02T17:50:21.295Z,16.35
2022-10-02T17:53:26.620Z,16.32
2022-10-02T17:56:28.330Z,16.20
2022-10-02T17:59:21.344Z,16.36
2022-10-02T18:02:14.451Z,16.37
2022-10-02T18:05:24.624Z,16.18
2022-10-02T18:08:21.584Z,16.06
2022-10-02T18:11:31.065Z,15.87
2022-10-02T18:14:20.895Z,15.77
2022-10-02T18:17:11.484Z,15.76
2022-10-02T18:20:16.517Z,15.84
2022-10-02T18:23:16.119Z,15.91
2022-10-02T18:25:53.749Z,16.22
2022-10-02T18:28:33.803Z,16.16
2022-10-02T18:31:51.073Z,16.10
2022-10-02T18:35:03.877Z,16.11
2022-10-02T18:37:59.213Z,16.06
2022-10-02T18:40:46.346Z,16.02
2022-10-02T18:43:36.769Z,15.86
2022-10-02T18:46:21.356Z,15.73
2022-10-02T18:49:16.714Z,15.68
2022-10-02T18:51:54.435Z,15.58
2022-10-02T18:54:43.269Z,15.45
2022-10-02T18:57:39.314Z,15.51
2022-10-02T19:00:20.080Z,15.48
2022-10-02T19:03:03.111Z,15.50
2022-10-02T19:05:42.221Z,15.36
2022-10-02T19:08:57.645Z,15.30
2022-10-02T19:11:34.887Z,15.24
2022-10-02T19:14:45.658Z,15.23
2022-10-02T19:17:23.885Z,15.16
2022-10-02T19:19:56.328Z,15.12
2022-10-02T19:22:26.186Z,15.08
2022-10-02T19:25:07.273Z,15.10
2022-10-02T19:27:49.683Z,15.10
2022-10-02T19:30:27.691Z,15.11
2022-10-02T19:32:59.565Z,15.20
2022-10-02T19:35:44.249Z,15.27
2022-10-02T19:38:30.937Z,15.36
2022-10-02T19:41:10.038Z,15.23
2022-10-02T19:43:54.407Z,15.33
2022-10-02T19:46:40.524Z,15.17
2022-10-02T19:49:23.653Z,15.07
2022-10-02T19:51:53.129Z,14.92
2022-10-02T19:54:37.961Z,14.90
2022-10-02T19:57:15.173Z,15.10
2022-10-02T19:59:52.374Z,15.13
2022-10-02T20:02:28.252Z,15.24
2022-10-02T20:05:01.380Z,15.47
2022-10-02T20:07:31.943Z,15.53
2022-10-02T20:10:09.466Z,15.53
2022-10-02T20:12:43.491Z,15.53
2022-10-02T20:15:47.242Z,15.46
2022-10-02T20:18:15.556Z,15.61
2022-10-02T20:20:47.186Z,15.73
2022-10-02T20:23:25.816Z,15.85
2022-10-02T20:25:58.572Z,15.86
2022-10-02T20:28:55.327Z,15.61
2022-10-02T20:31:34.767Z,15.66
2022-10-02T20:34:16.222Z,15.69
2022-10-02T20:37:09.343Z,15.61
2022-10-02T20:40:06.719Z,15.64
2022-10-02T20:43:05.406Z,15.65
2022-10-02T20:45:44.455Z,15.68
2022-10-02T20:49:08.136Z,15.73
2022-10-02T20:52:00.886Z,15.81
2022-10-02T20:54:45.100Z,15.91
2022-10-02T20:57:59.527Z,15.69
2022-10-02T21:01:07.033Z,15.71
2022-10-02T21:03:55.949Z,15.81
2022-10-02T21:06:50.957Z,15.69
2022-10-02T21:09:33.690Z,15.44
2022-10-02T21:12:40.561Z,15.60
2022-10-02T21:15:36.813Z,15.54
2022-10-02T21:18:35.514Z,15.45
2022-10-02T21:22:03.318Z,15.39
2022-10-02T21:25:08.965Z,15.45
2022-10-02T21:28:04.479Z,15.45
2022-10-02T21:30:54.837Z,15.52
2022-10-02T21:33:34.723Z,15.47
2022-10-02T21:36:10.478Z,15.43
2022-10-02T21:39:12.337Z,15.45
2022-10-02T21:41:58.892Z,15.52
2022-10-02T21:45:04.366Z,15.47
2022-10-02T21:47:57.390Z,15.52
2022-10-02T21:50:54.414Z,15.49
2022-10-02T21:54:04.885Z,15.63
2022-10-02T21:56:46.127Z,15.51
2022-10-02T21:59:51.283Z,15.55
2022-10-02T22:02:43.275Z,15.62
2022-10-02T22:05:31.170Z,15.56
2022-10-02T22:08:35.897Z,15.57
2022-10-02T22:11:12.089Z,15.55
2022-10-02T22:13:43.963Z,15.72
2022-10-02T22:16:29.953Z,15.74
2022-10-02T22:19:37.126Z,15.65
2022-10-02T22:22:17.632Z,15.61
2022-10-02T22:25:00.240Z,15.65
2022-10-02T22:28:05.502Z,15.73
2022-10-02T22:30:48.407Z,15.82
2022-10-02T22:33:55.080Z,15.75
2022-10-02T22:37:03.119Z,15.72
2022-10-02T22:40:02.095Z,15.69
2022-10-02T22:43:05.234Z,15.73
2022-10-02T22:45:58.329Z,15.80
2022-10-02T22:48:35.562Z,15.83
2022-10-02T22:51:41.623Z,15.73
2022-10-02T22:54:42.354Z,15.75
2022-10-02T22:57:40.434Z,15.69
2022-10-02T23:00:31.740Z,15.63
2022-10-02T23:03:19.645Z,15.70
2022-10-02T23:05:54.350Z,15.79
2022-10-02T23:08:39.273Z,15.97
2022-10-02T23:11:15.663Z,15.91
2022-10-02T23:14:06.067Z,15.95
2022-10-02T23:16:49.160Z,15.79
2022-10-02T23:19:49.007Z,15.73
2022-10-02T23:22:20.255Z,15.76
2022-10-02T23:25:14.670Z,15.63
2022-10-02T23:27:50.680Z,15.53
2022-10-02T23:30:20.886Z,15.53
2022-10-02T23:33:13.918Z,15.49
2022-10-02T23:36:02.338Z,15.45
2022-10-02T23:38:48.354Z,15.36
2022-10-02T23:41:48.543Z,15.21
2022-10-02T23:44:32.613Z,15.32
2022-10-02T23:47:28.241Z,15.24
2022-10-02T23:49:57.839Z,15.43
2022-10-02T23:52:53.482Z,15.54
2022-10-02T23:55:41.791Z,15.49
2022-10-02T23:58:44.438Z,15.44
